createdAt,value
2023-01-19T00:01:41.234Z,-0.67
2023-01-19T00:04:08.216Z,-0.64
2023-01-19T00:06:35.437Z,-0.62
2023-01-19T00:09:05.340Z,-0.64
2023-01-19T00:11:32.469Z,-0.64
2023-01-19T00:13:59.476Z,-0.67
2023-01-19T00:16:26.491Z,-0.68
2023-01-19T00:18:53.923Z,-0.72
2023-01-19T00:21:24.791Z,-0.75
2023-01-19T00:23:52.936Z,-0.75
2023-01-19T00:26:22.316Z,-0.75
2023-01-19T00:28:50.391Z,-0.78
2023-01-19T00:31:17.369Z,-0.75
2023-01-19T00:33:44.297Z,-0.76
2023-01-19T00:36:11.285Z,-0.74
2023-01-19T00:38:40.918Z,-0.77
2023-01-19T00:41:07.961Z,-0.74
2023-01-19T00:43:35.080Z,-0.74
2023-01-19T00:46:02.183Z,-0.71
2023-01-19T00:48:29.629Z,-0.73
2023-01-19T00:50:56.567Z,-0.73
2023-01-19T00:53:23.692Z,-0.74
2023-01-19T00:55:50.680Z,-0.73
2023-01-19T00:58:17.730Z,-0.73
2023-01-19T01:00:45.064Z,-0.75
2023-01-19T01:03:12.589Z,-0.74
2023-01-19T01:05:42.441Z,-0.75
2023-01-19T01:08:09.409Z,-0.74
2023-01-19T01:10:36.333Z,-0.76
2023-01-19T01:13:20.819Z,-0.76
2023-01-19T01:15:51.349Z,-0.72
2023-01-19T01:18:18.324Z,-0.74
2023-01-19T01:20:45.241Z,-0.76
2023-01-19T01:23:12.934Z,-0.75
2023-01-19T01:25:40.140Z,-0.74
2023-01-19T01:28:08.819Z,-0.72
2023-01-19T01:30:40.310Z,-0.72
2023-01-19T01:33:08.474Z,-0.73
2023-01-19T01:35:35.556Z,-0.72
2023-01-19T01:38:02.628Z,-0.70
2023-01-19T01:40:29.580Z,-0.70
2023-01-19T01:42:56.672Z,-0.69
2023-01-19T01:45:35.104Z,-0.64
2023-01-19T01:48:15.137Z,-0.68
2023-01-19T01:51:08.085Z,-0.71
2023-01-19T01:53:36.080Z,-0.68
2023-01-19T01:56:06.047Z,-0.65
2023-01-19T01:58:33.355Z,-0.66
2023-01-19T02:01:18.777Z,-0.68
2023-01-19T02:03:46.065Z,-0.68
2023-01-19T02:06:14.058Z,-0.67
2023-01-19T02:09:06.462Z,-0.68
2023-01-19T02:11:55.203Z,-0.69
2023-01-19T02:14:22.343Z,-0.65
2023-01-19T02:16:49.741Z,-0.63
2023-01-19T02:19:30.977Z,-0.58
2023-01-19T02:22:11.952Z,-0.56
2023-01-19T02:24:40.381Z,-0.54
2023-01-19T02:27:07.692Z,-0.56
2023-01-19T02:29:36.981Z,-0.56
2023-01-19T02:32:05.924Z,-0.55
2023-01-19T02:34:33.821Z,-0.55
2023-01-19T02:37:06.848Z,-0.52
2023-01-19T02:39:39.657Z,-0.52
2023-01-19T02:42:11.853Z,-0.47
2023-01-19T02:44:39.885Z,-0.49
2023-01-19T02:47:06.924Z,-0.50
2023-01-19T02:49:33.928Z,-0.50
2023-01-19T02:52:01.227Z,-0.51
2023-01-19T02:54:58.208Z,-0.55
2023-01-19T02:57:27.547Z,-0.61
2023-01-19T03:00:14.248Z,-0.63
2023-01-19T03:03:13.843Z,-0.64
2023-01-19T03:05:49.944Z,-0.66
2023-01-19T03:08:29.615Z,-0.68
2023-01-19T03:10:57.977Z,-0.69
2023-01-19T03:13:42.067Z,-0.69
2023-01-19T03:16:22.888Z,-0.69
2023-01-19T03:18:58.487Z,-0.70
2023-01-19T03:21:28.076Z,-0.72
2023-01-19T03:23:58.041Z,-0.70
2023-01-19T03:26:27.684Z,-0.69
2023-01-19T03:28:56.536Z,-0.68
2023-01-19T03:31:26.218Z,-0.68
2023-01-19T03:34:07.422Z,-0.70
2023-01-19T03:36:42.582Z,-0.73
2023-01-19T03:39:10.049Z,-0.73
2023-01-19T03:41:37.966Z,-0.72
2023-01-19T03:44:06.417Z,-0.70
2023-01-19T03:46:34.024Z,-0.71
2023-01-19T03:49:00.917Z,-0.70
2023-01-19T03:51:28.023Z,-0.71
2023-01-19T03:53:54.962Z,-0.71
2023-01-19T03:56:25.534Z,-0.69
2023-01-19T03:58:56.221Z,-0.68
2023-01-19T04:01:25.212Z,-0.64
2023-01-19T04:03:52.939Z,-0.63
2023-01-19T04:06:20.828Z,-0.60
2023-01-19T04:08:49.389Z,-0.59
2023-01-19T04:11:16.771Z,-0.53
2023-01-19T04:13:44.860Z,-0.53
2023-01-19T04:16:12.535Z,-0.51
2023-01-19T04:18:41.469Z,-0.47
2023-01-19T04:21:08.627Z,-0.47
2023-01-19T04:23:35.910Z,-0.37
2023-01-19T04:26:05.800Z,-0.37
2023-01-19T04:28:34.900Z,-0.31
2023-01-19T04:31:02.038Z,-0.33
2023-01-19T04:33:29.638Z,-0.33
2023-01-19T04:35:56.953Z,-0.30
2023-01-19T04:38:25.370Z,-0.27
2023-01-19T04:40:53.595Z,-0.26
2023-01-19T04:43:21.488Z,-0.22
2023-01-19T04:45:49.388Z,-0.22
2023-01-19T04:48:18.472Z,-0.16
2023-01-19T04:50:48.806Z,-0.20
2023-01-19T04:53:16.779Z,-0.21
2023-01-19T04:55:43.867Z,-0.17
2023-01-19T04:58:17.366Z,-0.18
2023-01-19T05:00:47.707Z,-0.17
2023-01-19T05:03:14.902Z,-0.21
2023-01-19T05:05:41.888Z,-0.19
2023-01-19T05:08:09.081Z,-0.20
2023-01-19T05:10:36.777Z,-0.21
2023-01-19T05:13:04.445Z,-0.17
2023-01-19T05:15:31.584Z,-0.12
2023-01-19T05:17:58.707Z,-0.12
2023-01-19T05:20:25.622Z,-0.11
2023-01-19T05:22:53.553Z,-0.10
2023-01-19T05:25:20.673Z,-0.09
2023-01-19T05:27:49.365Z,-0.05
2023-01-19T05:30:16.669Z,-0.05
2023-01-19T05:32:43.873Z,-0.05
2023-01-19T05:35:10.874Z,-0.02
2023-01-19T05:37:38.119Z,-0.02
2023-01-19T05:40:09.417Z,0.04
2023-01-19T05:42:36.795Z,0.03
2023-01-19T05:45:04.835Z,0.07
2023-01-19T05:47:32.403Z,0.06
2023-01-19T05:49:59.302Z,0.08
2023-01-19T05:52:26.481Z,0.09
2023-01-19T05:54:55.250Z,0.11
2023-01-19T05:57:24.071Z,0.14
2023-01-19T05:59:51.857Z,0.15
2023-01-19T06:02:19.795Z,0.16
2023-01-19T06:04:46.733Z,0.10
2023-01-19T06:07:13.908Z,0.15
2023-01-19T06:09:43.741Z,0.19
2023-01-19T06:12:10.637Z,0.19
2023-01-19T06:14:38.260Z,0.17
2023-01-19T06:17:06.784Z,0.21
2023-01-19T06:19:34.854Z,0.24
2023-01-19T06:22:03.387Z,0.24
2023-01-19T06:24:31.609Z,0.26
2023-01-19T06:27:01.220Z,0.27
2023-01-19T06:29:29.450Z,0.30
2023-01-19T06:31:56.608Z,0.29
2023-01-19T06:34:28.704Z,0.30
2023-01-19T06:36:56.539Z,0.33
2023-01-19T06:39:23.538Z,0.35
2023-01-19T06:41:52.782Z,0.36
2023-01-19T06:44:20.587Z,0.40
2023-01-19T06:46:49.038Z,0.40
2023-01-19T06:49:23.626Z,0.42
2023-01-19T06:51:52.621Z,0.43
2023-01-19T06:54:20.238Z,0.47
2023-01-19T06:56:51.816Z,0.48
2023-01-19T06:59:18.985Z,0.50
2023-01-19T07:01:46.074Z,0.49
2023-01-19T07:04:14.369Z,0.53
2023-01-19T07:06:44.864Z,0.55
2023-01-19T07:09:14.211Z,0.55
2023-01-19T07:11:45.590Z,0.55
2023-01-19T07:14:13.331Z,0.56
2023-01-19T07:16:40.624Z,0.58
2023-01-19T07:19:08.126Z,0.55
2023-01-19T07:21:35.068Z,0.59
2023-01-19T07:24:02.061Z,0.60
2023-01-19T07:26:29.045Z,0.58
2023-01-19T07:28:56.048Z,0.58
2023-01-19T07:31:23.315Z,0.60
2023-01-19T07:33:52.838Z,0.59
2023-01-19T07:36:21.874Z,0.61
2023-01-19T07:38:48.769Z,0.59
2023-01-19T07:41:15.834Z,0.61
2023-01-19T07:43:42.812Z,0.59
2023-01-19T07:46:10.004Z,0.61
2023-01-19T07:48:37.034Z,0.62
2023-01-19T07:51:11.117Z,0.60
2023-01-19T07:53:40.311Z,0.58
2023-01-19T07:56:07.841Z,0.61
2023-01-19T07:58:35.441Z,0.59
2023-01-19T08:01:13.182Z,0.58
2023-01-19T08:03:42.889Z,0.60
2023-01-19T08:06:22.929Z,0.61
2023-01-19T08:08:50.485Z,0.61
2023-01-19T08:11:17.390Z,0.63
2023-01-19T08:13:44.685Z,0.68
2023-01-19T08:16:11.630Z,0.65
2023-01-19T08:18:38.543Z,0.65
2023-01-19T08:21:05.744Z,0.65
2023-01-19T08:23:32.755Z,0.68
2023-01-19T08:25:59.866Z,0.67
2023-01-19T08:28:26.935Z,0.67
2023-01-19T08:30:55.696Z,0.65
2023-01-19T08:33:24.101Z,0.60
2023-01-19T08:35:54.812Z,0.58
2023-01-19T08:38:21.920Z,0.65
2023-01-19T08:40:49.141Z,0.66
2023-01-19T08:43:17.560Z,0.62
2023-01-19T08:45:49.238Z,0.64
2023-01-19T08:48:19.548Z,0.66
2023-01-19T08:50:47.634Z,0.63
2023-01-19T08:53:15.598Z,0.55
2023-01-19T08:55:43.159Z,0.54
2023-01-19T08:58:10.711Z,0.57
2023-01-19T09:00:38.914Z,0.57
2023-01-19T09:03:07.638Z,0.56
2023-01-19T09:05:37.485Z,0.54
2023-01-19T09:08:08.395Z,0.52
2023-01-19T09:10:38.028Z,0.55
2023-01-19T09:13:07.128Z,0.56
2023-01-19T09:15:36.025Z,0.60
2023-01-19T09:18:08.137Z,0.60
2023-01-19T09:20:36.362Z,0.60
2023-01-19T09:23:03.582Z,0.61
2023-01-19T09:25:31.183Z,0.65
2023-01-19T09:28:02.708Z,0.66
2023-01-19T09:30:29.989Z,0.61
2023-01-19T09:33:02.199Z,0.58
2023-01-19T09:35:29.264Z,0.63
2023-01-19T09:37:56.454Z,0.69
2023-01-19T09:40:23.696Z,0.71
2023-01-19T09:42:57.058Z,0.67
2023-01-19T09:45:29.822Z,0.68
2023-01-19T09:47:57.511Z,0.60
2023-01-19T09:50:29.788Z,0.69
2023-01-19T09:53:01.704Z,0.74
2023-01-19T09:55:29.484Z,0.77
2023-01-19T09:57:56.741Z,0.79
2023-01-19T10:00:28.173Z,0.73
2023-01-19T10:03:16.822Z,0.82
2023-01-19T10:05:47.837Z,0.83
2023-01-19T10:08:45.927Z,0.84
2023-01-19T10:11:51.668Z,0.85
2023-01-19T10:14:43.709Z,0.80
2023-01-19T10:17:21.855Z,0.85
2023-01-19T10:19:55.182Z,0.79
2023-01-19T10:22:24.766Z,0.82
2023-01-19T10:24:56.110Z,0.77
2023-01-19T10:27:27.231Z,0.76
2023-01-19T10:29:54.269Z,0.80
2023-01-19T10:32:34.454Z,0.89
2023-01-19T10:35:22.048Z,0.92
2023-01-19T10:37:49.673Z,0.92
2023-01-19T10:40:35.780Z,0.94
2023-01-19T10:43:48.617Z,0.93
2023-01-19T10:46:41.693Z,0.87
2023-01-19T10:49:28.569Z,0.89
2023-01-19T10:51:59.733Z,0.89
2023-01-19T10:54:27.985Z,0.93
2023-01-19T10:57:01.189Z,0.92
2023-01-19T10:59:31.788Z,0.90
2023-01-19T11:02:22.843Z,0.75
2023-01-19T11:04:53.156Z,0.87
2023-01-19T11:07:26.328Z,0.90
2023-01-19T11:10:18.123Z,0.76
2023-01-19T11:12:57.523Z,0.84
2023-01-19T11:16:09.978Z,0.80
2023-01-19T11:18:42.805Z,0.85
2023-01-19T11:21:24.309Z,0.89
2023-01-19T11:23:58.310Z,0.78
2023-01-19T11:26:40.853Z,0.79
2023-01-19T11:29:18.848Z,0.68
2023-01-19T11:31:48.221Z,0.67
2023-01-19T11:34:40.690Z,0.69
2023-01-19T11:37:18.873Z,0.70
2023-01-19T11:39:50.805Z,0.63
2023-01-19T11:42:18.401Z,0.65
2023-01-19T11:44:52.988Z,0.61
2023-01-19T11:47:30.589Z,0.60
2023-01-19T11:50:16.484Z,0.62
2023-01-19T11:53:13.255Z,0.60
2023-01-19T11:55:47.200Z,0.61
2023-01-19T11:58:18.715Z,0.52
2023-01-19T12:01:15.640Z,0.56
2023-01-19T12:04:11.684Z,0.49
2023-01-19T12:06:47.960Z,0.47
2023-01-19T12:09:24.861Z,0.53
2023-01-19T12:12:07.603Z,0.53
2023-01-19T12:14:55.150Z,0.55
2023-01-19T12:17:32.454Z,0.42
2023-01-19T12:20:06.019Z,0.46
2023-01-19T12:22:40.501Z,0.45
2023-01-19T12:25:21.942Z,0.43
2023-01-19T12:27:49.900Z,0.46
2023-01-19T12:30:25.393Z,0.43
2023-01-19T12:32:52.834Z,0.35
2023-01-19T12:35:54.704Z,0.43
2023-01-19T12:38:49.103Z,0.37
2023-01-19T12:41:38.362Z,0.43
2023-01-19T12:44:11.524Z,0.40
2023-01-19T12:46:59.353Z,0.33
2023-01-19T12:49:46.817Z,0.29
2023-01-19T12:52:34.260Z,0.35
2023-01-19T12:55:16.083Z,0.31
2023-01-19T12:58:06.345Z,0.24
2023-01-19T13:00:34.817Z,0.33
2023-01-19T13:03:19.190Z,0.32
2023-01-19T13:05:52.725Z,0.32
2023-01-19T13:08:23.272Z,0.33
2023-01-19T13:11:13.171Z,0.35
2023-01-19T13:14:03.857Z,0.31
2023-01-19T13:16:35.351Z,0.30
2023-01-19T13:19:05.592Z,0.28
2023-01-19T13:21:58.797Z,0.21
2023-01-19T13:24:25.863Z,0.17
2023-01-19T13:27:03.629Z,0.14
2023-01-19T13:29:40.595Z,0.17
2023-01-19T13:32:20.727Z,0.13
2023-01-19T13:34:59.424Z,0.13
2023-01-19T13:37:32.125Z,0.15
2023-01-19T13:40:01.326Z,0.08
2023-01-19T13:42:39.802Z,0.12
2023-01-19T13:45:16.650Z,0.05
2023-01-19T13:47:58.732Z,0.02
2023-01-19T13:50:29.764Z,0.06
2023-01-19T13:52:59.022Z,0.02
2023-01-19T13:55:28.162Z,-0.05
2023-01-19T13:57:57.177Z,-0.09
2023-01-19T14:00:29.945Z,-0.06
2023-01-19T14:03:03.024Z,-0.08
2023-01-19T14:05:31.262Z,-0.09
2023-01-19T14:08:16.571Z,-0.06
2023-01-19T14:10:49.498Z,-0.12
2023-01-19T14:13:25.900Z,-0.15
2023-01-19T14:15:56.640Z,-0.18
2023-01-19T14:18:35.992Z,-0.27
2023-01-19T14:21:14.032Z,-0.25
2023-01-19T14:24:09.965Z,-0.20
2023-01-19T14:27:07.836Z,-0.22
2023-01-19T14:29:35.804Z,-0.27
2023-01-19T14:32:21.202Z,-0.28
2023-01-19T14:35:13.771Z,-0.28
2023-01-19T14:37:50.034Z,-0.33
2023-01-19T14:40:22.424Z,-0.35
2023-01-19T14:42:54.998Z,-0.33
2023-01-19T14:45:28.462Z,-0.35
2023-01-19T14:47:57.801Z,-0.32
2023-01-19T14:50:26.726Z,-0.31
2023-01-19T14:53:02.996Z,-0.30
2023-01-19T14:55:37.906Z,-0.32
2023-01-19T14:58:29.735Z,-0.30
2023-01-19T15:01:00.340Z,-0.30
2023-01-19T15:03:43.577Z,-0.32
2023-01-19T15:06:28.150Z,-0.35
2023-01-19T15:08:55.944Z,-0.43
2023-01-19T15:11:27.045Z,-0.37
2023-01-19T15:13:55.437Z,-0.41
2023-01-19T15:16:23.936Z,-0.40
2023-01-19T15:18:50.973Z,-0.34
2023-01-19T15:21:20.239Z,-0.33
2023-01-19T15:23:58.586Z,-0.30
2023-01-19T15:26:26.859Z,-0.31
2023-01-19T15:28:56.137Z,-0.34
2023-01-19T15:31:24.807Z,-0.32
2023-01-19T15:33:51.975Z,-0.30
2023-01-19T15:36:20.932Z,-0.32
2023-01-19T15:38:51.118Z,-0.35
2023-01-19T15:41:26.668Z,-0.38
2023-01-19T15:43:54.264Z,-0.36
2023-01-19T15:46:22.195Z,-0.40
2023-01-19T15:48:50.658Z,-0.47
2023-01-19T15:51:20.808Z,-0.49
2023-01-19T15:53:49.162Z,-0.44
2023-01-19T15:56:19.682Z,-0.44
2023-01-19T15:58:46.810Z,-0.42
2023-01-19T16:01:17.448Z,-0.47
2023-01-19T16:03:45.158Z,-0.49
2023-01-19T16:06:13.336Z,-0.46
2023-01-19T16:08:46.553Z,-0.45
2023-01-19T16:11:15.552Z,-0.44
2023-01-19T16:13:46.306Z,-0.44
2023-01-19T16:16:22.088Z,-0.46
2023-01-19T16:18:49.497Z,-0.45
2023-01-19T16:21:16.607Z,-0.49
2023-01-19T16:23:53.839Z,-0.51
2023-01-19T16:26:35.122Z,-0.50
2023-01-19T16:29:10.992Z,-0.51
2023-01-19T16:31:38.727Z,-0.53
2023-01-19T16:34:05.913Z,-0.51
2023-01-19T16:36:35.028Z,-0.53
2023-01-19T16:39:09.665Z,-0.56
2023-01-19T16:41:36.795Z,-0.56
2023-01-19T16:44:04.907Z,-0.59
2023-01-19T16:46:37.403Z,-0.56
2023-01-19T16:49:05.411Z,-0.56
2023-01-19T16:51:33.136Z,-0.58
2023-01-19T16:54:00.394Z,-0.55
2023-01-19T16:56:27.418Z,-0.57
2023-01-19T16:58:55.679Z,-0.58
2023-01-19T17:01:23.696Z,-0.55
2023-01-19T17:03:53.642Z,-0.53
2023-01-19T17:06:22.911Z,-0.49
2023-01-19T17:08:52.453Z,-0.49
2023-01-19T17:11:32.574Z,-0.51
2023-01-19T17:14:10.766Z,-0.54
2023-01-19T17:16:47.566Z,-0.53
2023-01-19T17:19:17.152Z,-0.55
2023-01-19T17:21:46.534Z,-0.52
2023-01-19T17:24:13.645Z,-0.51
2023-01-19T17:26:48.372Z,-0.52
2023-01-19T17:29:16.979Z,-0.51
2023-01-19T17:31:50.273Z,-0.60
2023-01-19T17:34:17.422Z,-0.53
2023-01-19T17:36:50.187Z,-0.52
2023-01-19T17:39:18.707Z,-0.55
2023-01-19T17:41:45.719Z,-0.57
2023-01-19T17:44:12.795Z,-0.54
2023-01-19T17:46:40.010Z,-0.52
2023-01-19T17:49:08.032Z,-0.57
2023-01-19T17:51:35.493Z,-0.52
2023-01-19T17:54:02.812Z,-0.51
2023-01-19T17:56:36.829Z,-0.46
2023-01-19T17:59:06.693Z,-0.46
2023-01-19T18:01:40.060Z,-0.49
2023-01-19T18:04:15.616Z,-0.48
2023-01-19T18:06:43.303Z,-0.58
2023-01-19T18:09:10.289Z,-0.50
2023-01-19T18:11:37.588Z,-0.47
2023-01-19T18:14:07.568Z,-0.57
2023-01-19T18:16:35.015Z,-0.54
2023-01-19T18:19:02.144Z,-0.60
2023-01-19T18:21:30.613Z,-0.57
2023-01-19T18:24:08.137Z,-0.48
2023-01-19T18:26:58.385Z,-0.46
2023-01-19T18:29:25.586Z,-0.49
2023-01-19T18:31:52.606Z,-0.47
2023-01-19T18:34:19.629Z,-0.45
2023-01-19T18:36:46.659Z,-0.48
2023-01-19T18:39:13.793Z,-0.47
2023-01-19T18:41:42.341Z,-0.51
2023-01-19T18:44:10.921Z,-0.44
2023-01-19T18:46:38.924Z,-0.48
2023-01-19T18:49:05.998Z,-0.48
2023-01-19T18:51:35.111Z,-0.48
2023-01-19T18:54:05.154Z,-0.50
2023-01-19T18:56:33.455Z,-0.48
2023-01-19T18:59:01.885Z,-0.49
2023-01-19T19:01:32.939Z,-0.50
2023-01-19T19:04:00.554Z,-0.50
2023-01-19T19:06:28.383Z,-0.52
2023-01-19T19:08:58.155Z,-0.48
2023-01-19T19:11:26.778Z,-0.46
2023-01-19T19:13:58.780Z,-0.45
2023-01-19T19:16:26.166Z,-0.44
2023-01-19T19:18:53.331Z,-0.47
2023-01-19T19:21:21.591Z,-0.47
2023-01-19T19:23:56.074Z,-0.46
2023-01-19T19:26:25.202Z,-0.43
2023-01-19T19:28:52.224Z,-0.40
2023-01-19T19:31:21.075Z,-0.44
2023-01-19T19:33:51.539Z,-0.47
2023-01-19T19:36:20.069Z,-0.46
2023-01-19T19:38:48.820Z,-0.40
2023-01-19T19:41:24.288Z,-0.39
2023-01-19T19:43:51.356Z,-0.40
2023-01-19T19:46:20.179Z,-0.39
2023-01-19T19:48:48.679Z,-0.39
2023-01-19T19:51:25.654Z,-0.38
2023-01-19T19:53:57.458Z,-0.36
2023-01-19T19:56:25.397Z,-0.34
2023-01-19T19:58:54.479Z,-0.33
2023-01-19T20:01:26.958Z,-0.33
2023-01-19T20:03:54.985Z,-0.32
2023-01-19T20:06:24.443Z,-0.29
2023-01-19T20:08:53.621Z,-0.31
2023-01-19T20:11:26.127Z,-0.32
2023-01-19T20:13:53.935Z,-0.35
2023-01-19T20:16:22.662Z,-0.34
2023-01-19T20:18:51.715Z,-0.33
2023-01-19T20:21:21.326Z,-0.33
2023-01-19T20:23:55.677Z,-0.33
2023-01-19T20:26:30.521Z,-0.31
2023-01-19T20:29:01.385Z,-0.30
2023-01-19T20:31:32.271Z,-0.29
2023-01-19T20:34:05.426Z,-0.27
2023-01-19T20:36:32.678Z,-0.24
2023-01-19T20:39:08.576Z,-0.20
2023-01-19T20:41:43.186Z,-0.19
2023-01-19T20:44:22.483Z,-0.19
2023-01-19T20:46:49.884Z,-0.19
2023-01-19T20:49:16.868Z,-0.18
2023-01-19T20:51:46.229Z,-0.18
2023-01-19T20:54:14.853Z,-0.14
2023-01-19T20:56:41.923Z,-0.13
2023-01-19T20:59:10.480Z,-0.13
2023-01-19T21:01:43.643Z,-0.12
2023-01-19T21:04:12.217Z,-0.09
2023-01-19T21:06:39.887Z,-0.02
2023-01-19T21:09:08.606Z,-0.01
2023-01-19T21:11:37.821Z,0.02
2023-01-19T21:14:07.954Z,0.04
2023-01-19T21:16:37.268Z,0.08
2023-01-19T21:19:06.275Z,0.10
2023-01-19T21:21:40.080Z,0.08
2023-01-19T21:24:08.675Z,0.13
2023-01-19T21:26:36.079Z,0.13
2023-01-19T21:29:05.512Z,0.12
2023-01-19T21:31:35.541Z,0.13
2023-01-19T21:34:05.959Z,0.19
2023-01-19T21:36:33.045Z,0.24
2023-01-19T21:39:05.084Z,0.23
2023-01-19T21:41:34.181Z,0.26
2023-01-19T21:44:01.352Z,0.25
2023-01-19T21:46:33.544Z,0.22
2023-01-19T21:49:05.515Z,0.28
2023-01-19T21:51:35.747Z,0.26
2023-01-19T21:54:06.660Z,0.29
2023-01-19T21:56:35.674Z,0.30
2023-01-19T21:59:03.682Z,0.31
2023-01-19T22:01:32.252Z,0.34
2023-01-19T22:04:00.540Z,0.38
2023-01-19T22:06:28.128Z,0.35
2023-01-19T22:08:55.786Z,0.41
2023-01-19T22:11:23.701Z,0.45
2023-01-19T22:13:51.821Z,0.46
2023-01-19T22:16:20.411Z,0.47
2023-01-19T22:18:56.462Z,0.47
2023-01-19T22:21:25.627Z,0.45
2023-01-19T22:23:56.089Z,0.47
2023-01-19T22:26:23.418Z,0.52
2023-01-19T22:28:56.010Z,0.53
2023-01-19T22:31:24.193Z,0.54
2023-01-19T22:33:51.575Z,0.53
2023-01-19T22:36:22.224Z,0.55
2023-01-19T22:38:59.229Z,0.56
2023-01-19T22:41:27.845Z,0.59
2023-01-19T22:43:56.530Z,0.60
2023-01-19T22:46:25.782Z,0.59
2023-01-19T22:48:53.553Z,0.62
2023-01-19T22:51:21.961Z,0.62
2023-01-19T22:53:49.332Z,0.63
2023-01-19T22:56:26.911Z,0.65
2023-01-19T22:58:54.315Z,0.64
2023-01-19T23:01:25.212Z,0.69
2023-01-19T23:03:53.800Z,0.64
2023-01-19T23:06:26.244Z,0.67
2023-01-19T23:08:55.305Z,0.72
2023-01-19T23:11:29.755Z,0.77
2023-01-19T23:13:58.341Z,0.75
2023-01-19T23:16:25.768Z,0.74
2023-01-19T23:18:54.706Z,0.77
2023-01-19T23:21:23.064Z,0.81
2023-01-19T23:23:57.782Z,0.88
2023-01-19T23:26:24.969Z,0.84
2023-01-19T23:28:57.897Z,0.81
2023-01-19T23:31:28.155Z,0.80
2023-01-19T23:34:06.788Z,0.77
2023-01-19T23:36:36.770Z,0.79
2023-01-19T23:39:10.739Z,0.80
2023-01-19T23:41:38.038Z,0.80
2023-01-19T23:44:07.141Z,0.83
2023-01-19T23:46:34.105Z,0.84
2023-01-19T23:49:01.116Z,0.84
2023-01-19T23:51:29.976Z,0.89
2023-01-19T23:53:58.003Z,0.89
2023-01-19T23:56:28.024Z,0.93
2023-01-19T23:58:58.951Z,0.91
